createdAt,value
2022-11-22T00:00:53.573Z,24.10
2022-11-22T00:03:21.431Z,24.10
2022-11-22T00:05:49.184Z,24.10
2022-11-22T00:08:16.915Z,24.10
2022-11-22T00:10:46.025Z,24.10
2022-11-22T00:13:13.757Z,24.00
2022-11-22T00:15:41.471Z,24.00
2022-11-22T00:18:09.528Z,24.00
2022-11-22T00:20:37.396Z,24.00
2022-11-22T00:23:05.264Z,24.00
2022-11-22T00:25:32.998Z,24.00
2022-11-22T00:28:02.071Z,24.00
2022-11-22T00:30:29.849Z,24.00
2022-11-22T00:32:57.681Z,24.00
2022-11-22T00:35:25.376Z,23.90
2022-11-22T00:37:53.169Z,23.90
2022-11-22T00:40:20.882Z,23.90
2022-11-22T00:42:48.629Z,23.90
2022-11-22T00:45:17.999Z,23.90
2022-11-22T00:47:45.846Z,23.90
2022-11-22T00:50:13.769Z,23.90
2022-11-22T00:52:41.458Z,23.90
2022-11-22T00:55:09.513Z,23.80
2022-11-22T00:57:37.337Z,23.80
2022-11-22T01:00:07.443Z,23.80
2022-11-22T01:02:36.455Z,23.80
2022-11-22T01:05:05.088Z,23.80
2022-11-22T01:07:32.942Z,23.80
2022-11-22T01:10:00.766Z,23.80
2022-11-22T01:12:28.642Z,23.80
2022-11-22T01:14:56.442Z,23.80
2022-11-22T01:17:24.178Z,23.80
2022-11-22T01:19:53.376Z,23.80
2022-11-22T01:22:21.753Z,23.70
2022-11-22T01:24:49.544Z,23.70
2022-11-22T01:27:17.342Z,23.70
2022-11-22T01:29:45.133Z,23.70
2022-11-22T01:32:12.957Z,23.70
2022-11-22T01:34:40.676Z,23.70
2022-11-22T01:37:09.896Z,23.70
2022-11-22T01:39:37.728Z,23.60
2022-11-22T01:42:05.628Z,23.60
2022-11-22T01:44:34.620Z,23.60
2022-11-22T01:47:08.437Z,23.60
2022-11-22T01:49:43.702Z,23.60
2022-11-22T01:52:17.310Z,23.60
2022-11-22T01:54:50.825Z,23.60
2022-11-22T01:57:25.559Z,23.60
2022-11-22T01:59:59.201Z,23.60
2022-11-22T02:02:27.146Z,23.60
2022-11-22T02:04:58.910Z,23.50
2022-11-22T02:07:36.822Z,23.50
2022-11-22T02:10:06.025Z,23.50
2022-11-22T02:12:37.208Z,23.50
2022-11-22T02:15:07.166Z,23.50
2022-11-22T02:17:35.212Z,23.50
2022-11-22T02:20:02.980Z,23.50
2022-11-22T02:22:42.729Z,23.50
2022-11-22T02:25:18.743Z,23.50
2022-11-22T02:27:49.884Z,23.50
2022-11-22T02:30:18.531Z,23.40
2022-11-22T02:32:47.001Z,23.40
2022-11-22T02:35:19.577Z,23.40
2022-11-22T02:37:50.330Z,23.40
2022-11-22T02:40:19.046Z,23.40
2022-11-22T02:42:53.102Z,23.40
2022-11-22T02:45:20.797Z,23.40
2022-11-22T02:47:48.507Z,23.40
2022-11-22T02:50:16.380Z,23.40
2022-11-22T02:52:44.216Z,23.40
2022-11-22T02:55:12.226Z,23.40
2022-11-22T02:57:40.148Z,23.40
2022-11-22T03:00:11.947Z,23.40
2022-11-22T03:02:39.677Z,23.40
2022-11-22T03:05:07.947Z,23.40
2022-11-22T03:07:35.892Z,23.40
2022-11-22T03:10:03.876Z,23.30
2022-11-22T03:12:31.634Z,23.30
2022-11-22T03:14:59.345Z,23.30
2022-11-22T03:17:28.688Z,23.30
2022-11-22T03:19:56.469Z,23.30
2022-11-22T03:22:24.354Z,23.30
2022-11-22T03:24:52.145Z,23.30
2022-11-22T03:27:19.914Z,23.30
2022-11-22T03:29:47.820Z,23.30
2022-11-22T03:32:15.544Z,23.30
2022-11-22T03:34:44.748Z,23.30
2022-11-22T03:37:12.515Z,23.30
2022-11-22T03:39:40.203Z,23.30
2022-11-22T03:42:07.957Z,23.30
2022-11-22T03:44:35.688Z,23.20
2022-11-22T03:47:03.411Z,23.30
2022-11-22T03:49:31.239Z,23.30
2022-11-22T03:52:00.563Z,23.20
2022-11-22T03:54:28.414Z,23.20
2022-11-22T03:56:56.124Z,23.20
2022-11-22T03:59:23.833Z,23.20
2022-11-22T04:01:52.186Z,23.20
2022-11-22T04:04:19.985Z,23.20
2022-11-22T04:06:47.710Z,23.20
2022-11-22T04:09:16.909Z,23.20
2022-11-22T04:11:44.672Z,23.20
2022-11-22T04:14:30.636Z,23.20
2022-11-22T04:16:59.029Z,23.20
2022-11-22T04:19:27.000Z,23.20
2022-11-22T04:21:53.958Z,23.20
2022-11-22T04:24:40.565Z,23.20
2022-11-22T04:27:08.318Z,23.20
2022-11-22T04:29:36.029Z,23.10
2022-11-22T04:32:21.346Z,23.10
2022-11-22T04:34:49.114Z,23.10
2022-11-22T04:37:16.981Z,23.10
2022-11-22T04:39:46.038Z,23.10
2022-11-22T04:42:31.341Z,23.10
2022-11-22T04:44:59.079Z,23.10
2022-11-22T04:47:48.999Z,23.10
2022-11-22T04:50:36.412Z,23.10
2022-11-22T04:53:04.424Z,23.10
2022-11-22T04:55:33.548Z,23.10
2022-11-22T04:58:01.274Z,23.10
2022-11-22T05:00:30.102Z,23.10
2022-11-22T05:02:58.967Z,23.10
2022-11-22T05:05:27.329Z,23.00
2022-11-22T05:07:55.176Z,23.00
2022-11-22T05:10:26.739Z,23.00
2022-11-22T05:12:57.212Z,23.00
2022-11-22T05:15:25.037Z,23.00
2022-11-22T05:17:52.817Z,23.00
2022-11-22T05:20:20.575Z,23.00
2022-11-22T05:23:05.604Z,23.00
2022-11-22T05:25:33.346Z,23.00
2022-11-22T05:28:02.492Z,23.00
2022-11-22T05:30:30.228Z,23.00
2022-11-22T05:32:57.927Z,23.00
2022-11-22T05:35:25.664Z,23.00
2022-11-22T05:37:53.371Z,23.00
2022-11-22T05:40:21.206Z,23.00
2022-11-22T05:42:49.076Z,23.00
2022-11-22T05:45:18.925Z,23.00
2022-11-22T05:47:47.370Z,22.90
2022-11-22T05:50:15.213Z,23.00
2022-11-22T05:52:43.071Z,22.90
2022-11-22T05:55:11.104Z,22.90
2022-11-22T05:57:38.938Z,23.00
2022-11-22T06:00:08.603Z,23.00
2022-11-22T06:02:37.809Z,23.00
2022-11-22T06:05:06.286Z,23.00
2022-11-22T06:07:34.173Z,23.00
2022-11-22T06:10:02.010Z,23.00
2022-11-22T06:12:29.975Z,23.00
2022-11-22T06:14:57.839Z,23.10
2022-11-22T06:17:25.722Z,23.10
2022-11-22T06:19:54.930Z,23.10
2022-11-22T06:22:22.808Z,23.10
2022-11-22T06:24:50.639Z,23.10
2022-11-22T06:27:18.446Z,23.20
2022-11-22T06:29:46.428Z,23.20
2022-11-22T06:32:14.436Z,23.20
2022-11-22T06:34:42.316Z,23.20
2022-11-22T06:37:11.681Z,23.20
2022-11-22T06:39:39.507Z,23.30
2022-11-22T06:42:07.412Z,23.30
2022-11-22T06:44:35.279Z,23.30
2022-11-22T06:47:03.075Z,23.30
2022-11-22T06:49:31.365Z,23.40
2022-11-22T06:51:59.462Z,23.40
2022-11-22T06:54:28.633Z,23.40
2022-11-22T06:56:56.528Z,23.40
2022-11-22T06:59:24.354Z,23.40
2022-11-22T07:01:52.264Z,23.40
2022-11-22T07:04:20.688Z,23.50
2022-11-22T07:06:48.681Z,23.50
2022-11-22T07:09:17.441Z,23.50
2022-11-22T07:11:46.816Z,23.50
2022-11-22T07:14:14.632Z,23.50
2022-11-22T07:16:42.508Z,23.50
2022-11-22T07:19:11.269Z,23.50
2022-11-22T07:21:39.127Z,23.50
2022-11-22T07:24:08.682Z,23.50
2022-11-22T07:26:36.693Z,23.50
2022-11-22T07:29:05.946Z,23.50
2022-11-22T07:31:34.892Z,23.50
2022-11-22T07:34:02.815Z,23.60
2022-11-22T07:36:30.727Z,23.60
2022-11-22T07:38:58.667Z,23.60
2022-11-22T07:41:26.774Z,23.60
2022-11-22T07:43:55.645Z,23.60
2022-11-22T07:46:29.743Z,23.60
2022-11-22T07:48:58.449Z,23.60
2022-11-22T07:51:27.184Z,23.60
2022-11-22T07:53:56.677Z,23.70
2022-11-22T07:56:25.008Z,23.70
2022-11-22T07:58:52.930Z,23.70
2022-11-22T08:01:21.745Z,23.70
2022-11-22T08:03:50.978Z,23.80
2022-11-22T08:06:18.797Z,23.80
2022-11-22T08:08:46.615Z,23.80
2022-11-22T08:11:14.663Z,23.80
2022-11-22T08:13:43.898Z,23.80
2022-11-22T08:16:15.716Z,23.80
2022-11-22T08:18:49.124Z,23.90
2022-11-22T08:21:20.371Z,23.90
2022-11-22T08:23:49.734Z,23.90
2022-11-22T08:26:21.367Z,23.90
2022-11-22T08:28:49.273Z,24.00
2022-11-22T08:31:19.994Z,24.00
2022-11-22T08:33:48.800Z,24.00
2022-11-22T08:36:18.052Z,24.00
2022-11-22T08:38:46.149Z,24.10
2022-11-22T08:41:14.398Z,24.10
2022-11-22T08:43:42.298Z,24.10
2022-11-22T08:46:10.674Z,24.20
2022-11-22T08:48:39.424Z,24.20
2022-11-22T08:51:09.623Z,24.20
2022-11-22T08:53:41.755Z,24.20
2022-11-22T08:56:13.479Z,24.20
2022-11-22T08:58:42.553Z,24.20
2022-11-22T09:01:13.409Z,24.30
2022-11-22T09:03:41.849Z,24.30
2022-11-22T09:09:35.958Z,24.30
2022-11-22T09:11:49.851Z,24.40
2022-11-22T09:14:17.884Z,24.40
2022-11-22T09:16:45.715Z,24.40
2022-11-22T09:19:13.579Z,24.40
2022-11-22T09:21:41.429Z,24.40
2022-11-22T09:24:10.824Z,24.40
2022-11-22T09:26:38.816Z,24.40
2022-11-22T09:29:06.728Z,24.40
2022-11-22T09:31:35.179Z,24.40
2022-11-22T09:34:03.046Z,24.40
2022-11-22T09:36:31.074Z,24.40
2022-11-22T09:38:59.515Z,24.40
2022-11-22T09:41:57.680Z,24.40
2022-11-22T09:44:43.137Z,24.50
2022-11-22T09:47:26.310Z,24.50
2022-11-22T09:50:07.511Z,24.60
2022-11-22T09:52:43.843Z,24.60
2022-11-22T09:55:24.628Z,24.60
2022-11-22T09:58:06.984Z,24.70
2022-11-22T10:00:36.245Z,24.70
2022-11-22T10:03:15.837Z,24.70
2022-11-22T10:05:51.973Z,24.80
2022-11-22T10:08:36.307Z,24.80
2022-11-22T10:11:12.610Z,24.80
2022-11-22T10:13:49.454Z,24.80
2022-11-22T10:16:24.522Z,24.80
2022-11-22T10:18:59.948Z,24.90
2022-11-22T10:21:28.353Z,24.90
2022-11-22T10:23:56.278Z,24.90
2022-11-22T10:26:28.484Z,24.90
2022-11-22T10:29:14.162Z,25.00
2022-11-22T10:31:52.275Z,25.00
2022-11-22T10:34:30.168Z,25.00
2022-11-22T10:37:10.248Z,25.00
2022-11-22T10:40:00.980Z,25.00
2022-11-22T10:43:13.568Z,25.00
2022-11-22T10:45:48.367Z,25.10
2022-11-22T10:48:29.875Z,25.10
2022-11-22T10:51:10.485Z,25.10
2022-11-22T10:54:01.905Z,25.10
2022-11-22T10:56:39.539Z,25.10
2022-11-22T10:59:32.937Z,25.10
2022-11-22T11:02:22.030Z,25.10
2022-11-22T11:04:53.021Z,25.10
2022-11-22T11:07:23.687Z,25.10
2022-11-22T11:10:11.458Z,25.10
2022-11-22T11:12:46.420Z,25.10
2022-11-22T11:15:22.191Z,25.10
2022-11-22T11:18:02.039Z,25.10
2022-11-22T11:20:37.359Z,25.10
2022-11-22T11:23:20.726Z,25.10
2022-11-22T11:25:52.336Z,25.10
2022-11-22T11:28:23.368Z,25.10
2022-11-22T11:30:55.018Z,25.10
2022-11-22T11:33:29.090Z,25.10
2022-11-22T11:36:07.922Z,25.20
2022-11-22T11:38:39.196Z,25.20
2022-11-22T11:41:25.402Z,25.20
2022-11-22T11:43:54.919Z,25.20
2022-11-22T11:46:24.684Z,25.20
2022-11-22T11:48:56.070Z,25.30
2022-11-22T11:51:40.632Z,25.30
2022-11-22T11:54:15.190Z,25.30
2022-11-22T11:56:53.319Z,25.30
2022-11-22T11:59:23.375Z,25.30
2022-11-22T12:02:02.749Z,25.30
2022-11-22T12:04:37.159Z,25.30
2022-11-22T12:07:19.104Z,25.40
2022-11-22T12:09:49.640Z,25.40
2022-11-22T12:12:43.544Z,25.40
2022-11-22T12:15:20.632Z,25.40
2022-11-22T12:17:57.262Z,25.40
2022-11-22T12:20:39.642Z,25.50
2022-11-22T12:23:24.151Z,25.50
2022-11-22T12:25:57.242Z,25.50
2022-11-22T12:28:28.691Z,25.50
2022-11-22T12:31:03.657Z,25.50
2022-11-22T12:33:38.202Z,25.50
2022-11-22T12:36:17.213Z,25.50
2022-11-22T12:38:48.817Z,25.60
2022-11-22T12:41:21.071Z,25.60
2022-11-22T12:43:55.804Z,25.60
2022-11-22T12:46:29.035Z,25.60
2022-11-22T12:49:03.865Z,25.60
2022-11-22T12:51:44.765Z,25.60
2022-11-22T12:54:19.254Z,25.60
2022-11-22T12:56:54.446Z,25.60
2022-11-22T12:59:33.508Z,25.60
2022-11-22T13:02:16.606Z,25.60
2022-11-22T13:04:54.384Z,25.60
2022-11-22T13:07:43.943Z,25.60
2022-11-22T13:10:27.337Z,25.60
2022-11-22T13:12:58.292Z,25.60
2022-11-22T13:15:29.850Z,25.60
2022-11-22T13:17:58.350Z,25.70
2022-11-22T13:20:31.609Z,25.60
2022-11-22T13:23:26.367Z,25.60
2022-11-22T13:26:13.262Z,25.60
2022-11-22T13:28:44.561Z,25.60
2022-11-22T13:31:20.321Z,25.60
2022-11-22T13:33:58.644Z,25.60
2022-11-22T13:36:41.204Z,25.60
2022-11-22T13:39:19.236Z,25.60
2022-11-22T13:42:06.161Z,25.60
2022-11-22T13:45:13.591Z,25.60
2022-11-22T13:47:43.845Z,25.60
2022-11-22T13:51:00.921Z,25.60
2022-11-22T13:53:33.160Z,25.60
2022-11-22T13:56:59.511Z,25.60
2022-11-22T13:59:27.714Z,25.60
2022-11-22T14:02:00.559Z,25.60
2022-11-22T14:04:40.736Z,25.50
2022-11-22T14:07:35.466Z,25.50
2022-11-22T14:10:24.746Z,25.50
2022-11-22T14:13:36.893Z,25.50
2022-11-22T14:16:22.411Z,25.50
2022-11-22T14:19:04.223Z,25.50
2022-11-22T14:22:19.956Z,25.50
2022-11-22T14:25:32.726Z,25.50
2022-11-22T14:28:22.778Z,25.50
2022-11-22T14:30:54.041Z,25.50
2022-11-22T14:33:25.524Z,25.40
2022-11-22T14:36:17.399Z,25.40
2022-11-22T14:38:46.017Z,25.40
2022-11-22T14:41:53.862Z,25.30
2022-11-22T14:44:28.026Z,25.30
2022-11-22T14:47:05.530Z,25.30
2022-11-22T14:49:43.247Z,25.20
2022-11-22T14:52:22.543Z,25.20
2022-11-22T14:54:56.930Z,25.20
2022-11-22T14:57:29.315Z,25.10
2022-11-22T15:00:18.706Z,25.10
2022-11-22T15:03:34.595Z,25.10
2022-11-22T15:09:10.446Z,25.10
2022-11-22T15:09:48.618Z,25.00
2022-11-22T15:13:05.905Z,25.00
2022-11-22T15:57:36.653Z,25.00
2022-11-22T16:00:12.179Z,25.00
2022-11-22T16:02:49.865Z,25.00
2022-11-22T16:06:09.146Z,25.00
2022-11-22T16:08:19.256Z,25.00
2022-11-22T16:10:51.992Z,25.00
2022-11-22T16:13:29.022Z,25.00
2022-11-22T16:16:21.835Z,25.00
2022-11-22T16:18:50.863Z,25.00
2022-11-22T16:21:28.931Z,25.00
2022-11-22T16:24:18.207Z,25.10
2022-11-22T16:26:57.169Z,25.10
2022-11-22T16:29:32.151Z,25.10
2022-11-22T16:32:02.820Z,25.10
2022-11-22T16:34:30.646Z,25.10
2022-11-22T16:36:58.964Z,25.10
2022-11-22T16:39:29.174Z,25.10
2022-11-22T16:41:57.380Z,25.10
2022-11-22T16:44:25.909Z,25.20
2022-11-22T16:46:53.724Z,25.20
2022-11-22T16:49:23.763Z,25.20
2022-11-22T16:51:52.767Z,25.20
2022-11-22T16:54:23.786Z,25.20
2022-11-22T16:56:52.952Z,25.20
2022-11-22T16:59:20.812Z,25.20
2022-11-22T17:01:48.861Z,25.30
2022-11-22T17:04:23.597Z,25.30
2022-11-22T17:06:52.236Z,25.30
2022-11-22T17:09:20.369Z,25.30
2022-11-22T17:11:48.712Z,25.30
2022-11-22T17:14:19.489Z,25.40
2022-11-22T17:16:47.687Z,25.40
2022-11-22T17:19:45.697Z,25.40
2022-11-22T17:22:07.032Z,25.40
2022-11-22T17:24:35.363Z,25.40
2022-11-22T17:27:03.198Z,25.40
2022-11-22T17:29:49.917Z,25.50
2022-11-22T17:32:18.679Z,25.50
2022-11-22T17:34:46.612Z,25.50
2022-11-22T17:37:15.289Z,25.50
2022-11-22T17:39:43.122Z,25.50
2022-11-22T17:42:12.052Z,25.50
2022-11-22T17:44:41.280Z,25.50
2022-11-22T17:47:09.149Z,25.50
2022-11-22T17:49:37.123Z,25.50
2022-11-22T17:52:04.956Z,25.50
2022-11-22T17:54:32.807Z,25.50
2022-11-22T17:57:00.669Z,25.50
2022-11-22T17:59:28.588Z,25.50
2022-11-22T18:01:58.626Z,25.50
2022-11-22T18:04:26.411Z,25.50
2022-11-22T18:06:54.306Z,25.50
2022-11-22T18:09:22.097Z,25.40
2022-11-22T18:11:50.046Z,25.40
2022-11-22T18:14:18.322Z,25.40
2022-11-22T18:16:46.189Z,25.40
2022-11-22T18:19:15.441Z,25.40
2022-11-22T18:21:43.422Z,25.40
2022-11-22T18:24:12.180Z,25.40
2022-11-22T18:26:40.998Z,25.40
2022-11-22T18:31:59.920Z,25.30
2022-11-22T18:34:30.170Z,25.30
2022-11-22T18:37:03.459Z,25.30
2022-11-22T18:39:34.769Z,25.30
2022-11-22T18:42:03.652Z,25.30
2022-11-22T18:44:31.549Z,25.30
2022-11-22T18:46:59.366Z,25.20
2022-11-22T18:49:27.301Z,25.20
2022-11-22T18:51:56.614Z,25.20
2022-11-22T18:54:24.692Z,25.20
2022-11-22T18:56:53.086Z,25.20
2022-11-22T18:59:20.978Z,25.20
2022-11-22T19:01:48.965Z,25.10
2022-11-22T19:04:17.191Z,25.10
2022-11-22T19:06:45.957Z,25.10
2022-11-22T19:09:15.318Z,25.10
2022-11-22T19:11:43.200Z,25.10
2022-11-22T19:14:11.335Z,25.10
2022-11-22T19:16:39.234Z,25.10
2022-11-22T19:19:08.390Z,25.10
2022-11-22T19:21:36.252Z,25.00
2022-11-22T19:24:04.499Z,25.00
2022-11-22T19:26:33.700Z,25.00
2022-11-22T19:29:02.649Z,25.00
2022-11-22T19:31:31.332Z,25.00
2022-11-22T19:34:00.275Z,25.00
2022-11-22T19:36:33.732Z,25.00
2022-11-22T19:39:04.246Z,25.00
2022-11-22T19:41:33.820Z,25.00
2022-11-22T19:44:01.799Z,25.00
2022-11-22T19:46:30.180Z,25.00
2022-11-22T19:49:01.075Z,25.00
2022-11-22T19:51:30.826Z,25.00
2022-11-22T19:54:02.070Z,25.00
2022-11-22T19:56:33.560Z,25.00
2022-11-22T19:59:03.969Z,25.00
2022-11-22T20:01:33.983Z,25.00
2022-11-22T20:04:04.471Z,25.00
2022-11-22T20:06:34.067Z,25.00
2022-11-22T20:09:03.972Z,24.90
2022-11-22T20:11:33.321Z,24.90
2022-11-22T20:14:01.216Z,24.90
2022-11-22T20:16:31.712Z,24.90
2022-11-22T20:19:02.227Z,24.90
2022-11-22T20:21:32.799Z,24.90
2022-11-22T20:24:02.347Z,24.90
2022-11-22T20:26:33.660Z,24.90
2022-11-22T20:29:03.695Z,24.90
2022-11-22T20:31:33.053Z,24.90
2022-11-22T20:34:02.107Z,24.90
2022-11-22T20:36:32.474Z,24.90
2022-11-22T20:39:05.605Z,24.90
2022-11-22T20:41:38.146Z,24.90
2022-11-22T20:44:06.486Z,24.80
2022-11-22T20:46:38.378Z,24.80
2022-11-22T20:49:06.243Z,24.80
2022-11-22T20:51:35.883Z,24.80
2022-11-22T20:54:03.897Z,24.80
2022-11-22T20:56:31.772Z,24.80
2022-11-22T20:59:01.246Z,24.80
2022-11-22T21:01:32.228Z,24.80
2022-11-22T21:04:00.091Z,24.80
2022-11-22T21:06:28.857Z,24.80
2022-11-22T21:08:56.864Z,24.80
2022-11-22T21:11:28.511Z,24.80
2022-11-22T21:13:57.839Z,24.80
2022-11-22T21:16:29.611Z,24.80
2022-11-22T21:19:00.933Z,24.80
2022-11-22T21:21:30.014Z,24.80
2022-11-22T21:24:01.909Z,24.90
2022-11-22T21:26:30.622Z,24.90
2022-11-22T21:29:00.427Z,24.90
2022-11-22T21:31:29.583Z,24.90
2022-11-22T21:33:57.993Z,24.90
2022-11-22T21:36:26.337Z,24.90
2022-11-22T21:38:54.359Z,24.90
2022-11-22T21:41:40.306Z,24.90
2022-11-22T21:44:09.488Z,24.90
2022-11-22T21:46:38.949Z,24.90
2022-11-22T21:49:13.684Z,24.90
2022-11-22T21:51:41.712Z,24.90
2022-11-22T21:54:10.115Z,24.90
2022-11-22T21:56:38.413Z,24.90
2022-11-22T21:59:06.839Z,24.90
2022-11-22T22:01:34.975Z,24.90
2022-11-22T22:04:07.905Z,24.90
2022-11-22T22:06:36.026Z,24.90
2022-11-22T22:09:04.203Z,24.90
2022-11-22T22:11:32.218Z,24.90
2022-11-22T22:14:00.166Z,24.90
2022-11-22T22:16:28.014Z,24.90
2022-11-22T22:18:55.931Z,25.00
2022-11-22T22:21:25.137Z,25.00
2022-11-22T22:23:53.463Z,25.00
2022-11-22T22:26:21.392Z,25.00
2022-11-22T22:28:49.780Z,25.00
2022-11-22T22:31:21.893Z,25.00
2022-11-22T22:33:52.075Z,25.00
2022-11-22T22:36:20.121Z,25.00
2022-11-22T22:38:49.606Z,25.00
2022-11-22T22:41:18.098Z,25.00
2022-11-22T22:43:49.832Z,25.00
2022-11-22T22:46:20.565Z,25.00
2022-11-22T22:48:50.052Z,25.00
2022-11-22T22:51:21.061Z,25.00
2022-11-22T22:53:51.466Z,25.00
2022-11-22T22:56:22.316Z,25.00
2022-11-22T22:58:54.682Z,25.00
2022-11-22T23:01:25.004Z,25.00
2022-11-22T23:03:55.074Z,25.00
2022-11-22T23:06:24.324Z,25.00
2022-11-22T23:08:55.604Z,25.00
2022-11-22T23:11:46.903Z,25.00
2022-11-22T23:14:18.780Z,25.00
2022-11-22T23:16:46.968Z,25.00
2022-11-22T23:19:15.068Z,25.00
2022-11-22T23:21:42.921Z,25.00
2022-11-22T23:24:12.851Z,25.00
2022-11-22T23:26:41.055Z,25.00
2022-11-22T23:29:09.018Z,25.00
2022-11-22T23:31:36.890Z,25.00
2022-11-22T23:34:04.896Z,25.00
2022-11-22T23:36:35.944Z,25.00
2022-11-22T23:39:06.985Z,25.00
2022-11-22T23:41:36.420Z,25.00
2022-11-22T23:44:05.139Z,25.00
2022-11-22T23:46:33.364Z,25.00
2022-11-22T23:49:03.230Z,25.00
2022-11-22T23:51:33.665Z,25.00
2022-11-22T23:54:03.641Z,25.00
2022-11-22T23:56:33.385Z,25.00
2022-11-22T23:59:05.008Z,25.00
